Time;durP1;ratioP1;P1;durP2;ratioP2;P2;SDS_P1;SDS_P2;PMS_P1;PMS_P2;Temp;Humidity;BMP_temperature;BMP_pressure;BME280_temperature;BME280_humidity;BME280_pressure;Samples;Min_cycle;Max_cycle;Signal;HPM_P1;HPM_P2
2021/11/25 00:02:19;;;;;;;34.40;27.90;;;;;;;6.04;66.84;100639.37;108600;1278;23056;-79
2021/11/25 00:04:49;;;;;;;31.50;28.00;;;;;;;5.99;66.93;100639.10;108897;1274;23899;-81
2021/11/25 00:07:19;;;;;;;33.30;29.20;;;;;;;5.95;66.99;100638.20;109011;1275;22016;-77
2021/11/25 00:09:48;;;;;;;32.10;28.70;;;;;;;5.97;67.37;100635.61;108833;1275;22030;-77
2021/11/25 00:12:18;;;;;;;31.80;28.00;;;;;;;5.98;67.33;100632.38;108900;1275;22947;-76
2021/11/25 00:14:47;;;;;;;33.80;27.80;;;;;;;5.94;67.10;100627.64;108921;1275;23775;-77
2021/11/25 00:17:17;;;;;;;34.40;30.70;;;;;;;5.88;67.26;100628.30;108400;1283;21997;-77
2021/11/25 00:19:46;;;;;;;35.40;30.90;;;;;;;5.83;67.48;100621.00;108423;1282;23753;-77
2021/11/25 00:22:18;;;;;;;34.60;30.60;;;;;;;5.86;67.83;100617.45;108609;1278;22034;-75
2021/11/25 00:24:48;;;;;;;36.80;32.30;;;;;;;5.84;67.72;100618.34;108528;1282;22026;-76
2021/11/25 00:27:17;;;;;;;42.40;31.90;;;;;;;5.79;67.80;100616.80;108477;1282;24088;-76
2021/11/25 00:29:46;;;;;;;38.70;32.20;;;;;;;5.78;68.35;100617.74;108466;1282;23957;-76
2021/11/25 00:32:15;;;;;;;40.50;32.10;;;;;;;5.81;68.48;100616.16;108433;1282;23065;-76
2021/11/25 00:34:44;;;;;;;38.70;31.30;;;;;;;5.82;68.49;100612.89;108514;1275;23681;-76
2021/11/25 00:37:14;;;;;;;41.90;31.50;;;;;;;5.82;68.42;100608.35;108550;1279;22096;-76
2021/11/25 00:39:43;;;;;;;36.80;32.60;;;;;;;5.81;68.50;100601.64;108442;1282;21979;-76
2021/11/25 00:42:13;;;;;;;40.60;32.60;;;;;;;5.82;68.70;100605.04;108597;1278;23618;-76
2021/11/25 00:44:42;;;;;;;37.70;30.00;;;;;;;5.78;68.41;100601.16;108424;1282;22000;-77
2021/11/25 00:47:11;;;;;;;36.10;31.00;;;;;;;5.72;68.46;100602.24;108171;1287;21997;-76
2021/11/25 00:49:45;;;;;;;37.80;31.60;;;;;;;5.63;68.67;100598.61;107952;1288;22329;-76
2021/11/25 00:52:15;;;;;;;35.50;30.20;;;;;;;5.60;68.98;100595.36;108292;1287;22130;-76
2021/11/25 00:54:44;;;;;;;38.10;31.40;;;;;;;5.58;68.99;100593.12;108213;1283;23044;-76
2021/11/25 00:57:13;;;;;;;36.40;31.30;;;;;;;5.58;69.20;100588.42;108493;1282;22776;-76
2021/11/25 00:59:42;;;;;;;37.60;33.00;;;;;;;5.58;69.40;100588.35;108344;1283;22055;-76
2021/11/25 01:02:14;;;;;;;34.10;29.40;;;;;;;5.56;69.28;100586.59;108363;1283;22036;-75
2021/11/25 01:04:44;;;;;;;38.90;33.20;;;;;;;5.54;69.36;100590.11;108493;1278;23842;-76
2021/11/25 01:07:14;;;;;;;39.10;34.20;;;;;;;5.51;69.34;100588.94;109095;1275;21980;-76
2021/11/25 01:09:43;;;;;;;38.30;32.70;;;;;;;5.47;69.25;100587.75;108844;1278;22346;-75
2021/11/25 01:12:13;;;;;;;36.10;31.80;;;;;;;5.40;69.32;100579.77;108906;1275;22862;-76
2021/11/25 01:14:43;;;;;;;37.90;31.90;;;;;;;5.35;69.27;100578.45;108890;1275;23062;-76
2021/11/25 01:17:13;;;;;;;32.20;28.70;;;;;;;5.30;69.25;100575.39;108461;1282;22465;-75
2021/11/25 01:19:43;;;;;;;35.70;30.00;;;;;;;5.23;69.32;100568.96;108423;1282;22006;-76
2021/11/25 01:22:13;;;;;;;33.10;29.50;;;;;;;5.16;69.28;100566.05;108321;1282;22095;-76
2021/11/25 01:24:43;;;;;;;34.30;28.70;;;;;;;5.11;69.34;100566.44;108465;1281;23065;-78
2021/11/25 01:27:12;;;;;;;31.60;28.10;;;;;;;5.04;69.21;100559.41;108533;1281;22743;-77
2021/11/25 01:29:42;;;;;;;37.80;28.60;;;;;;;4.98;69.26;100558.34;108487;1282;22032;-76
2021/11/25 01:32:11;;;;;;;31.00;27.30;;;;;;;4.89;69.20;100554.80;108476;1282;23045;-76
2021/11/25 01:34:42;;;;;;;30.50;27.10;;;;;;;4.82;69.35;100549.00;108023;1283;23814;-76
2021/11/25 01:37:12;;;;;;;33.40;28.80;;;;;;;4.71;69.36;100547.94;108264;1283;23100;-76
2021/11/25 01:39:41;;;;;;;31.70;27.10;;;;;;;4.60;69.35;100546.02;108346;1283;23869;-76
2021/11/25 01:42:10;;;;;;;31.20;27.20;;;;;;;4.50;69.45;100547.55;108406;1283;22461;-76
2021/11/25 01:44:40;;;;;;;38.10;29.50;;;;;;;4.39;69.62;100543.00;108067;1288;21985;-76
2021/11/25 01:47:09;;;;;;;59.90;40.90;;;;;;;4.31;69.85;100536.14;108161;1288;21985;-76
2021/11/25 01:49:39;;;;;;;34.50;29.90;;;;;;;4.25;70.03;100534.88;108037;1289;21992;-76
2021/11/25 01:52:11;;;;;;;;;;;;;;;4.22;70.06;100536.02;108131;1283;23577;-77
2021/11/25 01:54:41;;;;;;;37.20;29.90;;;;;;;4.09;70.12;100530.26;108672;1282;21991;-76
2021/11/25 01:57:12;;;;;;;41.00;30.80;;;;;;;4.02;70.24;100528.20;108468;1283;24005;-76
2021/11/25 01:59:41;;;;;;;36.30;29.40;;;;;;;3.96;70.29;100525.70;108453;1283;23100;-76
2021/11/25 02:02:13;;;;;;;33.40;27.80;;;;;;;3.90;70.39;100521.98;108427;1277;21981;-76
2021/11/25 02:04:43;;;;;;;33.20;27.30;;;;;;;3.83;70.44;100512.96;108888;1278;22091;-77
2021/11/25 02:07:17;;;;;;;33.50;26.10;;;;;;;3.76;70.43;100510.91;108804;1277;23790;-76
2021/11/25 02:09:46;;;;;;;31.70;25.70;;;;;;;3.69;70.47;100510.44;108663;1278;22442;-76
2021/11/25 02:12:15;;;;;;;42.50;31.70;;;;;;;3.62;70.55;100506.73;108769;1278;22016;-76
2021/11/25 02:14:44;;;;;;;57.40;37.10;;;;;;;3.57;70.65;100498.30;108335;1283;22220;-76
2021/11/25 02:17:16;;;;;;;43.20;31.30;;;;;;;3.56;70.92;100490.72;108351;1285;22930;-76
2021/11/25 02:19:49;;;;;;;44.60;33.10;;;;;;;3.56;70.87;100486.33;108261;1285;23649;-76
2021/11/25 02:22:19;;;;;;;52.60;37.60;;;;;;;3.51;70.69;100479.77;108347;1285;22126;-76
2021/11/25 02:24:52;;;;;;;64.60;50.30;;;;;;;3.44;70.70;100480.30;108399;1285;21990;-76
2021/11/25 02:27:22;;;;;;;84.50;66.90;;;;;;;3.37;70.75;100477.02;108342;1285;23619;-76
2021/11/25 02:29:51;;;;;;;137.40;73.90;;;;;;;3.32;70.81;100475.86;108338;1285;21995;-76
2021/11/25 02:32:31;;;;;;;86.70;53.20;;;;;;;3.26;70.84;100475.39;108405;1278;23782;-76
2021/11/25 02:35:06;;;;;;;59.10;40.10;;;;;;;3.20;70.87;100473.07;108863;1278;22250;-77
2021/11/25 02:37:35;;;;;;;38.80;27.80;;;;;;;3.12;70.84;100466.73;108847;1278;23772;-77
2021/11/25 02:40:34;;;;;;;33.20;27.60;;;;;;;3.02;70.99;100460.92;108910;1276;22026;-77
2021/11/25 02:43:10;;;;;;;37.90;27.80;;;;;;;2.89;71.03;100452.66;108746;1277;22039;-76
2021/11/25 02:45:53;;;;;;;41.60;32.50;;;;;;;2.80;71.16;100452.96;108413;1285;23621;-77
2021/11/25 02:48:46;;;;;;;43.10;33.70;;;;;;;2.73;71.30;100454.05;108379;1285;22137;-75
2021/11/25 02:51:35;;;;;;;38.00;28.90;;;;;;;2.68;71.56;100449.54;108402;1285;23660;-76
2021/11/25 02:54:07;;;;;;;37.40;32.00;;;;;;;2.61;71.48;100443.30;108427;1283;21980;-76
2021/11/25 02:56:36;;;;;;;35.70;29.50;;;;;;;2.52;71.62;100435.74;108367;1284;23445;-76
2021/11/25 02:59:07;;;;;;;36.50;28.90;;;;;;;2.45;71.76;100430.92;108402;1283;22033;-76
2021/11/25 03:01:37;;;;;;;31.90;27.50;;;;;;;2.39;71.84;100427.86;108043;1286;23173;-76
2021/11/25 03:04:08;;;;;;;30.00;26.40;;;;;;;2.33;71.96;100419.77;108370;1281;23592;-75
2021/11/25 03:06:38;;;;;;;34.60;28.80;;;;;;;2.30;72.19;100412.89;108498;1281;23594;-75
2021/11/25 03:09:09;;;;;;;35.90;29.10;;;;;;;2.27;72.13;100408.80;108515;1281;22357;-75
2021/11/25 03:11:38;;;;;;;46.80;35.90;;;;;;;2.22;72.24;100406.56;108596;1280;22062;-76
2021/11/25 03:14:09;;;;;;;41.30;33.80;;;;;;;2.22;72.46;100406.55;108194;1286;23621;-76
2021/11/25 03:16:39;;;;;;;65.50;58.30;;;;;;;2.23;72.52;100403.67;108216;1286;24407;-75
2021/11/25 03:19:15;;;;;;;119.50;85.30;;;;;;;2.23;72.55;100390.86;108167;1283;23756;-75
2021/11/25 03:21:44;;;;;;;95.30;59.90;;;;;;;2.25;72.67;100385.60;108422;1282;21983;-76
2021/11/25 03:24:16;;;;;;;89.40;56.00;;;;;;;2.27;72.71;100386.39;108430;1283;21993;-76
2021/11/25 03:26:45;;;;;;;79.70;51.40;;;;;;;2.27;72.60;100382.85;108198;1286;22322;-76
2021/11/25 03:29:15;;;;;;;64.10;41.80;;;;;;;2.28;72.74;100377.90;107587;1295;22195;-75
2021/11/25 03:31:47;;;;;;;57.70;40.60;;;;;;;2.26;72.68;100369.02;107717;1288;22459;-75
2021/11/25 03:34:19;;;;;;;48.10;37.10;;;;;;;2.26;72.63;100364.34;108011;1289;23758;-76
2021/11/25 03:36:48;;;;;;;42.50;34.00;;;;;;;2.25;72.64;100361.81;108036;1287;22081;-76
2021/11/25 03:39:18;;;;;;;40.90;34.60;;;;;;;2.20;72.42;100361.69;108065;1288;22122;-76
2021/11/25 03:41:47;;;;;;;41.00;33.60;;;;;;;2.13;72.49;100355.27;108036;1288;21996;-76
2021/11/25 03:44:16;;;;;;;41.20;33.30;;;;;;;2.08;72.60;100349.89;108035;1285;25074;-76
2021/11/25 03:46:48;;;;;;;41.90;35.40;;;;;;;2.01;72.57;100348.30;108559;1277;23583;-77
2021/11/25 03:49:17;;;;;;;40.90;33.30;;;;;;;1.94;72.60;100345.03;108888;1277;23688;-77
2021/11/25 03:51:47;;;;;;;39.30;32.40;;;;;;;1.88;72.72;100339.58;108880;1278;22981;-77
2021/11/25 03:54:19;;;;;;;46.60;38.00;;;;;;;1.81;72.83;100328.04;108865;1277;23815;-77
2021/11/25 03:56:48;;;;;;;39.00;33.40;;;;;;;1.79;73.05;100323.55;108823;1278;22036;-77
2021/11/25 03:59:21;;;;;;;36.90;32.80;;;;;;;1.79;73.18;100318.67;108853;1278;22018;-77
2021/11/25 04:01:59;;;;;;;38.00;33.10;;;;;;;1.78;73.12;100311.29;108864;1278;21997;-77
2021/11/25 04:04:31;;;;;;;39.90;33.80;;;;;;;1.74;73.06;100310.19;108819;1278;23026;-77
2021/11/25 04:07:00;;;;;;;45.80;38.80;;;;;;;1.70;73.14;100309.57;108605;1278;22152;-77
2021/11/25 04:09:30;;;;;;;63.60;56.80;;;;;;;1.65;73.12;100305.48;108894;1277;21952;-75
2021/11/25 04:12:00;;;;;;;82.10;56.10;;;;;;;1.63;73.32;100296.90;108605;1278;21987;-77
2021/11/25 04:14:29;;;;;;;52.30;40.30;;;;;;;1.62;73.37;100299.73;108727;1278;21989;-77
2021/11/25 04:16:59;;;;;;;65.90;43.50;;;;;;;1.61;73.28;100296.88;108768;1278;22038;-76
2021/11/25 04:19:31;;;;;;;76.40;48.40;;;;;;;1.57;73.34;100290.55;108835;1277;22441;-76
2021/11/25 04:22:01;;;;;;;54.90;42.40;;;;;;;1.59;73.63;100285.95;108829;1278;22242;-77
2021/11/25 04:24:30;;;;;;;52.20;40.70;;;;;;;1.58;73.47;100285.09;108862;1278;22008;-77
2021/11/25 04:27:00;;;;;;;65.80;44.70;;;;;;;1.56;73.42;100275.02;108814;1278;23025;-76
2021/11/25 04:29:39;;;;;;;57.50;41.50;;;;;;;1.55;73.55;100265.90;108839;1278;23053;-76
2021/11/25 04:37:49;;;;;;;57.10;42.80;;;;;;;1.58;73.57;100253.39;108415;1283;22844;-76
2021/11/25 04:40:19;;;;;;;57.40;44.90;;;;;;;1.54;73.53;100249.68;108453;1282;22719;-76
2021/11/25 04:42:48;;;;;;;49.10;41.90;;;;;;;1.49;73.26;100241.40;108425;1282;23576;-76
2021/11/25 04:45:18;;;;;;;46.50;38.90;;;;;;;1.42;73.40;100238.45;108329;1283;22786;-76
2021/11/25 04:47:47;;;;;;;51.20;41.80;;;;;;;1.36;73.49;100231.86;108407;1282;22081;-75
2021/11/25 04:50:20;;;;;;;47.10;39.80;;;;;;;1.33;73.55;100229.36;108356;1283;23694;-76
2021/11/25 04:52:50;;;;;;;61.20;51.30;;;;;;;1.29;73.65;100225.66;108271;1283;22044;-76
2021/11/25 04:55:23;;;;;;;53.30;42.40;;;;;;;1.24;73.79;100221.01;108145;1288;23395;-78
2021/11/25 04:57:55;;;;;;;49.60;39.70;;;;;;;1.22;73.83;100222.31;108057;1288;22280;-77
2021/11/25 05:00:25;;;;;;;50.80;45.00;;;;;;;1.22;74.03;100216.77;108053;1286;22948;-76
2021/11/25 05:02:56;;;;;;;61.40;45.50;;;;;;;1.19;74.06;100211.95;108215;1286;22812;-76
2021/11/25 05:05:36;;;;;;;54.70;43.70;;;;;;;1.13;74.06;100209.92;108316;1286;22222;-76
2021/11/25 05:08:06;;;;;;;50.90;42.80;;;;;;;1.10;74.02;100211.93;108216;1286;23872;-76
2021/11/25 05:10:40;;;;;;;49.20;42.20;;;;;;;1.07;74.10;100209.68;107962;1287;23611;-76
2021/11/25 05:13:09;;;;;;;50.30;44.10;;;;;;;1.07;74.25;100203.67;108072;1286;23626;-76
2021/11/25 05:15:40;;;;;;;49.90;43.50;;;;;;;1.06;74.36;100202.67;108299;1286;23090;-76
2021/11/25 05:18:11;;;;;;;48.40;40.70;;;;;;;1.05;74.40;100198.76;108068;1285;23030;-77
2021/11/25 05:20:41;;;;;;;50.20;41.30;;;;;;;1.03;74.38;100194.23;108408;1277;22025;-76
2021/11/25 05:23:16;;;;;;;49.90;42.80;;;;;;;0.99;74.41;100193.45;108883;1277;23643;-76
2021/11/25 05:25:47;;;;;;;50.60;43.90;;;;;;;0.97;74.45;100188.72;108687;1278;22121;-76
2021/11/25 05:28:16;;;;;;;53.50;44.90;;;;;;;0.95;74.61;100184.36;108465;1282;22762;-76
2021/11/25 05:30:45;;;;;;;50.20;43.30;;;;;;;0.95;74.66;100182.67;108394;1283;22185;-76
2021/11/25 05:33:16;;;;;;;54.00;46.20;;;;;;;0.93;74.65;100174.83;108459;1283;23815;-76
2021/11/25 05:35:45;;;;;;;47.90;42.60;;;;;;;0.92;74.71;100173.13;108396;1282;22103;-76
2021/11/25 05:38:19;;;;;;;49.60;44.00;;;;;;;0.90;74.71;100165.65;108037;1288;21999;-76
2021/11/25 05:40:51;;;;;;;53.30;46.30;;;;;;;0.90;74.77;100162.70;108034;1288;22096;-76
2021/11/25 05:43:26;;;;;;;53.70;45.30;;;;;;;0.90;74.86;100161.30;108302;1288;23748;-76
2021/11/25 05:45:55;;;;;;;;;;;;;;;0.90;74.78;100156.10;108073;1288;22117;-76
2021/11/25 05:48:25;;;;;;;50.60;44.70;;;;;;;0.81;74.81;100155.53;108016;1288;21990;-76
2021/11/25 05:50:55;;;;;;;52.50;45.30;;;;;;;0.81;74.96;100153.52;108145;1288;22017;-75
2021/11/25 05:53:25;;;;;;;54.40;43.40;;;;;;;0.83;75.08;100152.30;107965;1288;23075;-75
2021/11/25 05:55:54;;;;;;;51.90;46.20;;;;;;;0.84;75.13;100151.34;107808;1282;23820;-75
2021/11/25 05:58:23;;;;;;;50.40;44.90;;;;;;;0.86;75.04;100144.96;108573;1280;23753;-76
2021/11/25 06:00:52;;;;;;;55.50;47.90;;;;;;;0.87;75.02;100138.27;108383;1281;21988;-76
2021/11/25 06:03:25;;;;;;;55.40;43.90;;;;;;;0.89;75.04;100140.95;108467;1278;23557;-76
2021/11/25 06:05:54;;;;;;;51.50;45.80;;;;;;;0.88;75.04;100137.69;108942;1275;22268;-76
2021/11/25 06:08:23;;;;;;;53.60;47.70;;;;;;;0.88;75.02;100135.33;108629;1278;22740;-77
2021/11/25 06:10:55;;;;;;;56.20;45.90;;;;;;;0.88;75.04;100138.09;108895;1275;21998;-76
2021/11/25 06:13:29;;;;;;;55.90;46.80;;;;;;;0.86;75.04;100134.03;108959;1275;21983;-76
2021/11/25 06:15:58;;;;;;;52.90;45.60;;;;;;;0.87;75.07;100133.13;109113;1274;22969;-76
2021/11/25 06:18:28;;;;;;;54.50;46.30;;;;;;;0.87;75.09;100133.94;108890;1278;23704;-75
2021/11/25 06:20:57;;;;;;;50.30;43.40;;;;;;;0.87;75.00;100132.92;108835;1278;21980;-75
2021/11/25 06:23:26;;;;;;;51.40;45.80;;;;;;;0.87;75.04;100129.84;108871;1275;24464;-76
2021/11/25 06:25:55;;;;;;;56.80;46.10;;;;;;;0.86;75.10;100127.60;108768;1275;21989;-76
2021/11/25 06:28:25;;;;;;;54.80;48.70;;;;;;;0.85;74.99;100126.52;108938;1275;23797;-76
2021/11/25 06:30:54;;;;;;;53.40;46.90;;;;;;;0.81;74.94;100123.83;108878;1275;23595;-76
2021/11/25 06:33:23;;;;;;;58.10;51.50;;;;;;;0.78;75.03;100121.10;108984;1275;23707;-76
2021/11/25 06:35:53;;;;;;;57.90;51.60;;;;;;;0.80;75.07;100120.95;108947;1275;23091;-76
2021/11/25 06:38:22;;;;;;;56.10;49.70;;;;;;;0.81;75.07;100120.17;108907;1275;23035;-76
2021/11/25 06:40:51;;;;;;;60.60;49.50;;;;;;;0.82;75.10;100122.58;108717;1278;164717;-76
2021/11/25 06:43:20;;;;;;;64.30;49.00;;;;;;;0.83;75.10;100120.91;108892;1276;22023;-76
2021/11/25 06:45:49;;;;;;;61.90;53.10;;;;;;;0.84;75.06;100117.38;108809;1278;22091;-76
2021/11/25 06:48:18;;;;;;;57.40;48.50;;;;;;;0.87;75.11;100117.02;108476;1281;22012;-75
2021/11/25 06:50:47;;;;;;;57.90;47.70;;;;;;;0.85;75.01;100117.45;108561;1281;22009;-76
2021/11/25 06:53:17;;;;;;;55.40;44.50;;;;;;;0.85;75.14;100111.91;108369;1284;22095;-78
2021/11/25 06:55:46;;;;;;;58.90;47.80;;;;;;;0.86;74.99;100111.85;108457;1284;21988;-78
2021/11/25 06:58:15;;;;;;;63.70;50.20;;;;;;;0.85;74.96;100110.54;108361;1282;22449;-80
2021/11/25 07:00:44;;;;;;;56.80;47.90;;;;;;;0.85;75.00;100109.48;108073;1288;23063;-79
2021/11/25 07:03:15;;;;;;;63.30;49.40;;;;;;;0.88;75.12;100106.19;108236;1288;22045;-79
2021/11/25 07:05:46;;;;;;;63.70;48.60;;;;;;;0.90;75.05;100105.11;107981;1286;22039;-79
2021/11/25 07:08:15;;;;;;;57.90;49.30;;;;;;;0.96;75.14;100108.35;108074;1286;22031;-79
2021/11/25 07:10:44;;;;;;;55.10;47.70;;;;;;;1.01;75.11;100106.30;108100;1282;23785;-79
2021/11/25 07:13:29;;;;;;;56.00;50.00;;;;;;;1.03;74.95;100105.60;108494;1282;22134;-79
2021/11/25 07:16:01;;;;;;;57.00;50.20;;;;;;;1.05;74.94;100103.70;108437;1285;23060;-79
2021/11/25 07:18:30;;;;;;;65.20;51.20;;;;;;;1.07;74.91;100100.77;108605;1278;22415;-79
2021/11/25 07:20:59;;;;;;;58.30;51.50;;;;;;;1.10;74.91;100100.88;108827;1278;21980;-79
2021/11/25 07:23:29;;;;;;;59.20;52.00;;;;;;;1.14;74.77;100101.48;108899;1278;22039;-80
2021/11/25 07:25:58;;;;;;;57.90;49.30;;;;;;;1.19;74.79;100096.43;108775;1277;21983;-79
2021/11/25 07:28:46;;;;;;;72.10;53.60;;;;;;;1.22;74.62;100094.12;108766;1277;21976;-80
2021/11/25 07:31:20;;;;;;;67.30;55.40;;;;;;;1.25;74.54;100086.66;109082;1275;22978;-79
2021/11/25 07:33:52;;;;;;;56.90;50.50;;;;;;;1.30;74.66;100084.02;109008;1275;21993;-80
2021/11/25 07:36:22;;;;;;;;;;;;;;;1.33;74.45;100071.64;109094;1275;22098;-80
2021/11/25 07:38:54;;;;;;;60.70;52.00;;;;;;;1.29;74.28;100071.43;109015;1275;21978;-80
2021/11/25 07:41:23;;;;;;;;;;;;;;;1.28;74.19;100068.20;108977;1275;21967;-79
2021/11/25 07:43:52;;;;;;;57.90;49.40;;;;;;;1.22;74.17;100067.39;109166;1275;22644;-79
2021/11/25 07:46:22;;;;;;;62.10;52.70;;;;;;;1.26;74.36;100066.76;108875;1275;21977;-81
2021/11/25 07:48:51;;;;;;;57.00;49.50;;;;;;;1.35;74.47;100070.23;109095;1275;22795;-80
2021/11/25 07:51:20;;;;;;;60.50;50.00;;;;;;;1.43;74.28;100069.14;109257;1274;22003;-81
2021/11/25 07:53:50;;;;;;;64.50;50.10;;;;;;;1.47;74.09;100070.92;109019;1275;22086;-80
2021/11/25 07:56:20;;;;;;;60.50;49.40;;;;;;;1.51;73.90;100070.31;109117;1275;22634;-79
2021/11/25 07:58:51;;;;;;;61.70;51.80;;;;;;;1.53;73.77;100070.95;108680;1275;23045;-79
2021/11/25 08:01:25;;;;;;;67.60;54.50;;;;;;;1.59;73.81;100066.70;109017;1278;23025;-80
2021/11/25 08:03:54;;;;;;;63.70;50.90;;;;;;;1.68;73.88;100062.91;109021;1275;21996;-80
2021/11/25 08:06:24;;;;;;;59.90;49.50;;;;;;;1.73;73.62;100061.77;109018;1275;21982;-80
2021/11/25 08:08:55;;;;;;;54.30;46.30;;;;;;;1.77;73.38;100056.98;109065;1275;22007;-79
2021/11/25 08:11:24;;;;;;;55.30;47.50;;;;;;;1.80;73.24;100054.52;109053;1275;23599;-78
2021/11/25 08:13:54;;;;;;;68.20;59.50;;;;;;;1.81;73.01;100053.73;108926;1275;22017;-79
2021/11/25 08:16:28;;;;;;;69.00;55.70;;;;;;;1.85;73.02;100052.54;108968;1275;22017;-77
2021/11/25 08:19:00;;;;;;;59.00;50.70;;;;;;;1.90;73.07;100049.19;108909;1275;23708;-77
2021/11/25 08:21:29;;;;;;;61.00;51.70;;;;;;;1.96;72.76;100047.34;108771;1275;22276;-78
2021/11/25 08:23:59;;;;;;;65.70;57.10;;;;;;;1.96;72.48;100048.41;109149;1273;22035;-78
2021/11/25 08:26:28;;;;;;;78.70;62.00;;;;;;;1.95;72.45;100047.13;108866;1275;24323;-78
2021/11/25 08:28:57;;;;;;;52.50;45.70;;;;;;;1.97;72.50;100045.04;108868;1275;23047;-78
2021/11/25 08:31:28;;;;;;;56.80;48.10;;;;;;;1.98;72.33;100038.53;108944;1275;23681;-78
2021/11/25 08:33:58;;;;;;;55.10;45.50;;;;;;;1.99;72.34;100032.34;108755;1275;22198;-78
2021/11/25 08:36:26;;;;;;;64.40;51.50;;;;;;;2.05;72.51;100037.27;108804;1275;21986;-78
2021/11/25 08:38:56;;;;;;;48.60;42.50;;;;;;;2.14;72.44;100033.26;109033;1275;21981;-79
2021/11/25 08:41:25;;;;;;;66.50;56.10;;;;;;;2.15;72.08;100027.95;108424;1283;22119;-78
2021/11/25 08:43:55;;;;;;;65.50;57.00;;;;;;;2.23;72.04;100024.41;108418;1284;22311;-79
2021/11/25 08:46:24;;;;;;;70.70;54.40;;;;;;;2.28;72.08;100019.78;108511;1284;22045;-79
2021/11/25 08:49:12;;;;;;;57.80;48.70;;;;;;;2.41;72.20;100022.09;108399;1284;23843;-79
2021/11/25 08:51:42;;;;;;;56.70;48.80;;;;;;;2.50;71.88;100019.58;108384;1283;23615;-79
2021/11/25 08:54:11;;;;;;;53.60;46.60;;;;;;;2.59;71.88;100017.10;108434;1280;22143;-79
2021/11/25 08:56:42;;;;;;;54.80;45.40;;;;;;;2.63;71.12;100015.27;108337;1284;22018;-79
2021/11/25 08:59:11;;;;;;;54.40;48.20;;;;;;;2.67;71.16;100014.59;108532;1280;23863;-78
2021/11/25 09:01:42;;;;;;;53.60;47.10;;;;;;;2.75;71.20;100009.89;108407;1283;22028;-78
2021/11/25 09:04:12;;;;;;;57.00;45.40;;;;;;;2.84;71.17;100015.09;108476;1284;22092;-79
2021/11/25 09:06:45;;;;;;;54.90;43.90;;;;;;;2.95;71.01;100014.04;108803;1274;21990;-77
2021/11/25 09:09:17;;;;;;;64.00;48.60;;;;;;;3.03;70.70;100006.71;108546;1281;22020;-76
2021/11/25 09:11:46;;;;;;;55.80;46.10;;;;;;;3.13;70.66;100011.63;108537;1282;21998;-76
2021/11/25 09:14:21;;;;;;;54.80;47.10;;;;;;;3.25;70.56;100016.05;108471;1281;22906;-76
2021/11/25 09:16:50;;;;;;;65.40;49.10;;;;;;;3.33;70.33;100012.41;108513;1282;22037;-77
2021/11/25 09:19:19;;;;;;;52.90;46.30;;;;;;;3.41;70.15;100004.06;108525;1282;24162;-76
2021/11/25 09:21:49;;;;;;;59.30;45.10;;;;;;;3.48;69.75;99989.92;108525;1281;22786;-77
2021/11/25 09:24:19;;;;;;;45.10;40.00;;;;;;;3.56;69.88;99987.81;108496;1282;22456;-76
2021/11/25 09:26:48;;;;;;;50.50;42.00;;;;;;;3.67;69.73;99985.23;108565;1282;22022;-77
2021/11/25 09:29:20;;;;;;;45.90;38.70;;;;;;;3.82;69.65;99980.66;108216;1287;23844;-76
2021/11/25 09:31:49;;;;;;;49.10;41.40;;;;;;;3.93;69.02;99971.02;108233;1287;22049;-77
2021/11/25 09:34:21;;;;;;;43.80;38.60;;;;;;;4.03;69.08;99967.16;108447;1281;21982;-76
2021/11/25 09:36:53;;;;;;;43.00;37.50;;;;;;;4.14;68.53;99961.81;108697;1281;22014;-76
2021/11/25 09:39:25;;;;;;;;;;;;;;;4.18;67.81;99951.70;108723;1280;22131;-76
2021/11/25 09:41:55;;;;;;;34.50;29.40;;;;;;;4.04;66.68;99943.43;108691;1281;21989;-76
2021/11/25 09:44:27;;;;;;;42.00;33.70;;;;;;;4.08;67.05;99938.17;108549;1282;21989;-76
2021/11/25 09:46:58;;;;;;;;;;;;;;;4.19;67.31;99935.70;108826;1275;24318;-76
2021/11/25 09:49:30;;;;;;;45.50;37.00;;;;;;;4.30;67.18;99935.32;108867;1275;22091;-77
2021/11/25 09:51:59;;;;;;;;;;;;;;;4.45;67.05;99931.36;108507;1283;23045;-77
2021/11/25 09:54:28;;;;;;;41.90;35.70;;;;;;;4.53;66.54;99931.83;108369;1285;23602;-77
2021/11/25 09:56:57;;;;;;;46.40;40.20;;;;;;;4.69;66.85;99927.89;108497;1281;21988;-77
2021/11/25 09:59:27;;;;;;;48.20;38.70;;;;;;;4.90;66.59;99923.41;108520;1282;22766;-77
2021/11/25 10:01:59;;;;;;;42.20;36.10;;;;;;;5.10;66.32;99921.51;108451;1285;21998;-77
2021/11/25 10:04:28;;;;;;;38.00;33.60;;;;;;;5.23;65.56;99918.90;108380;1284;22110;-77
2021/11/25 10:06:59;;;;;;;42.60;38.10;;;;;;;5.33;65.13;99923.40;108324;1285;24318;-77
2021/11/25 10:09:39;;;;;;;36.90;33.00;;;;;;;5.44;64.58;99909.27;108479;1279;22082;-77
2021/11/25 10:12:38;;;;;;;35.70;31.90;;;;;;;5.49;63.57;99899.52;108861;1278;22742;-77
2021/11/25 10:15:29;;;;;;;37.30;33.60;;;;;;;5.50;62.95;99892.27;108890;1278;24323;-75
2021/11/25 10:18:05;;;;;;;38.00;33.80;;;;;;;5.59;62.68;99888.61;109059;1275;22438;-76
2021/11/25 10:20:38;;;;;;;38.30;34.20;;;;;;;5.67;62.33;99889.59;108972;1278;23743;-76
2021/11/25 10:23:30;;;;;;;38.10;33.90;;;;;;;5.84;62.71;99888.33;108941;1278;23079;-77
2021/11/25 10:26:10;;;;;;;36.20;32.40;;;;;;;6.05;62.30;99880.83;109047;1277;21963;-77
2021/11/25 10:28:52;;;;;;;38.00;34.20;;;;;;;6.19;61.68;99877.77;108802;1278;22022;-76
2021/11/25 10:31:29;;;;;;;38.70;34.60;;;;;;;6.22;60.53;99868.73;108399;1284;22001;-76
2021/11/25 10:34:11;;;;;;;37.50;33.50;;;;;;;6.31;61.15;99861.02;108465;1284;23076;-76
2021/11/25 10:42:35;;;;;;;39.20;35.10;;;;;;;6.97;59.55;99853.48;108401;1285;23720;-77
2021/11/25 10:45:16;;;;;;;36.60;31.60;;;;;;;7.49;62.42;99862.81;108423;1284;22594;-76
2021/11/25 10:48:03;;;;;;;38.90;33.10;;;;;;;8.11;63.28;99860.70;108394;1283;22773;-76
2021/11/25 10:50:35;;;;;;;44.70;35.70;;;;;;;8.70;60.97;99862.01;108783;1278;21988;-77
2021/11/25 10:53:08;;;;;;;36.70;32.70;;;;;;;9.25;60.66;99857.77;109095;1275;23024;-76
2021/11/25 10:55:38;;;;;;;36.30;32.50;;;;;;;9.67;57.93;99856.70;108769;1278;22037;-76
2021/11/25 10:58:09;;;;;;;39.70;35.00;;;;;;;9.77;55.33;99849.79;108921;1276;23605;-76
2021/11/25 11:00:42;;;;;;;40.50;36.20;;;;;;;9.56;52.38;99848.27;108863;1278;21983;-77
2021/11/25 11:03:29;;;;;;;44.30;39.70;;;;;;;9.18;51.44;99840.63;108825;1277;23107;-77
2021/11/25 11:06:04;;;;;;;42.20;37.50;;;;;;;9.15;53.00;99837.02;108740;1278;22785;-77
2021/11/25 11:08:44;;;;;;;38.70;34.60;;;;;;;9.09;52.39;99834.70;108856;1278;23679;-77
2021/11/25 11:11:13;;;;;;;39.80;35.70;;;;;;;8.88;51.74;99836.95;108889;1276;22005;-78
2021/11/25 11:17:25;;;;;;;43.40;38.20;;;;;;;8.31;52.06;99832.23;108482;1284;22112;-77
2021/11/25 11:20:17;;;;;;;44.30;39.50;;;;;;;8.24;53.13;99826.50;108364;1284;23603;-75
2021/11/25 11:22:54;;;;;;;;;;;;;;;8.15;52.82;99816.41;108610;1284;22738;-82
2021/11/25 11:25:26;;;;;;;37.20;33.30;;;;;;;7.75;51.97;99815.57;108712;1283;21983;-76
2021/11/25 11:27:58;;;;;;;36.20;30.80;;;;;;;7.38;52.32;99805.41;108525;1282;21999;-80
2021/11/25 11:30:28;;;;;;;;;;;;;;;6.98;52.73;99795.39;108419;1284;23171;-75
2021/11/25 11:32:58;;;;;;;40.20;34.30;;;;;;;6.50;53.08;99787.39;108425;1284;21981;-76
2021/11/25 11:35:31;;;;;;;38.60;34.80;;;;;;;6.29;54.49;99792.10;108135;1288;23775;-76
2021/11/25 11:38:02;;;;;;;37.30;33.40;;;;;;;6.23;55.54;99789.27;107945;1288;22022;-76
2021/11/25 11:40:36;;;;;;;38.70;34.90;;;;;;;6.18;56.01;99784.43;108146;1288;24324;-76
2021/11/25 11:43:06;;;;;;;37.70;33.70;;;;;;;6.09;56.05;99781.04;108306;1287;21997;-75
2021/11/25 11:45:38;;;;;;;37.90;34.10;;;;;;;5.98;56.38;99775.25;108028;1289;22752;-75
2021/11/25 11:48:13;;;;;;;38.80;34.80;;;;;;;5.89;56.60;99772.17;107959;1291;23807;-76
2021/11/25 11:50:49;;;;;;;41.30;37.10;;;;;;;5.80;56.93;99764.83;107887;1291;23051;-76